createdAt,value
2022-08-04T00:02:18.885Z,88.60
2022-08-04T00:04:53.331Z,88.70
2022-08-04T00:07:44.002Z,89.00
2022-08-04T00:10:16.399Z,89.10
2022-08-04T00:12:48.357Z,89.20
2022-08-04T00:15:17.012Z,89.30
2022-08-04T00:18:08.271Z,89.60
2022-08-04T00:20:40.895Z,90.00
2022-08-04T00:23:09.333Z,90.10
2022-08-04T00:25:44.636Z,90.00
2022-08-04T00:28:12.953Z,89.90
2022-08-04T00:30:42.465Z,89.80
2022-08-04T00:33:09.664Z,89.60
2022-08-04T00:35:38.372Z,89.60
2022-08-04T00:38:05.698Z,89.60
2022-08-04T00:41:01.734Z,89.70
2022-08-04T00:43:48.732Z,89.60
2022-08-04T00:46:18.245Z,89.40
2022-08-04T00:49:01.643Z,89.50
2022-08-04T00:52:31.736Z,89.50
2022-08-04T00:54:52.899Z,89.60
2022-08-04T00:57:33.897Z,89.60
2022-08-04T01:00:14.977Z,89.80
2022-08-04T01:03:00.464Z,89.90
2022-08-04T01:05:27.318Z,89.90
2022-08-04T01:08:18.018Z,90.00
2022-08-04T01:11:21.326Z,90.00
2022-08-04T01:13:48.070Z,90.00
2022-08-04T01:16:17.497Z,90.00
2022-08-04T01:19:01.842Z,90.00
2022-08-04T01:21:43.744Z,89.80
2022-08-04T01:25:00.013Z,89.70
2022-08-04T01:28:06.638Z,89.70
2022-08-04T01:30:37.740Z,89.80
2022-08-04T01:33:09.236Z,89.80
2022-08-04T01:35:47.380Z,89.90
2022-08-04T01:38:33.987Z,90.00
2022-08-04T01:41:05.031Z,90.10
2022-08-04T01:43:34.307Z,90.00
2022-08-04T01:46:03.524Z,90.10
2022-08-04T01:48:31.174Z,90.10
2022-08-04T01:51:05.429Z,90.20
2022-08-04T01:53:38.378Z,90.10
2022-08-04T01:56:09.832Z,90.20
2022-08-04T01:58:38.235Z,90.30
2022-08-04T02:01:10.582Z,90.30
2022-08-04T02:04:21.358Z,90.40
2022-08-04T02:06:49.910Z,90.40
2022-08-04T02:09:33.299Z,90.40
2022-08-04T02:12:15.886Z,90.40
2022-08-04T02:14:56.530Z,90.40
2022-08-04T02:17:31.842Z,90.50
2022-08-04T02:20:07.422Z,90.50
2022-08-04T02:22:39.715Z,90.40
2022-08-04T02:25:11.882Z,90.40
2022-08-04T02:28:00.160Z,90.40
2022-08-04T02:31:07.020Z,90.40
2022-08-04T02:33:41.795Z,90.40
2022-08-04T02:36:11.063Z,90.40
2022-08-04T02:39:02.173Z,90.40
2022-08-04T02:41:30.540Z,90.40
2022-08-04T02:44:09.013Z,90.40
2022-08-04T02:46:37.935Z,90.40
2022-08-04T02:49:07.918Z,90.40
2022-08-04T02:51:36.839Z,90.40
2022-08-04T02:54:05.343Z,90.40
2022-08-04T02:56:33.996Z,90.40
2022-08-04T02:59:03.736Z,90.40
2022-08-04T03:01:31.025Z,90.40
2022-08-04T03:04:12.899Z,90.40
2022-08-04T03:07:24.974Z,90.40
2022-08-04T03:10:10.819Z,90.40
2022-08-04T03:12:58.816Z,90.50
2022-08-04T03:15:55.082Z,90.50
2022-08-04T03:18:56.084Z,90.60
2022-08-04T03:21:55.542Z,90.60
2022-08-04T03:24:37.280Z,90.50
2022-08-04T03:27:12.050Z,90.60
2022-08-04T03:29:47.974Z,90.50
2022-08-04T03:32:43.215Z,90.50
2022-08-04T03:35:22.545Z,90.50
2022-08-04T03:38:11.191Z,90.40
2022-08-04T03:41:10.121Z,90.50
2022-08-04T03:44:00.023Z,90.50
2022-08-04T03:47:04.316Z,90.50
2022-08-04T03:49:49.180Z,90.50
2022-08-04T03:52:56.343Z,90.60
2022-08-04T03:55:41.853Z,90.50
2022-08-04T03:58:08.590Z,90.50
2022-08-04T04:01:12.055Z,90.50
2022-08-04T04:04:17.811Z,90.50
2022-08-04T04:07:36.298Z,90.50
2022-08-04T04:10:15.385Z,90.50
2022-08-04T04:13:24.713Z,90.50
2022-08-04T04:16:17.607Z,90.50
2022-08-04T04:19:02.881Z,90.50
2022-08-04T04:21:57.257Z,90.50
2022-08-04T04:24:55.008Z,90.40
2022-08-04T04:27:51.112Z,90.40
2022-08-04T04:30:29.305Z,90.40
2022-08-04T04:33:38.413Z,90.30
2022-08-04T04:36:24.264Z,90.40
2022-08-04T04:39:09.608Z,90.30
2022-08-04T04:41:52.884Z,90.30
2022-08-04T04:44:41.730Z,90.30
2022-08-04T04:48:07.292Z,90.20
2022-08-04T04:50:28.528Z,90.10
2022-08-04T04:53:39.778Z,90.10
2022-08-04T04:56:16.499Z,90.10
2022-08-04T04:58:43.740Z,90.00
2022-08-04T05:01:41.200Z,90.00
2022-08-04T05:04:26.799Z,89.60
2022-08-04T05:07:29.391Z,89.40
2022-08-04T05:10:23.483Z,89.30
2022-08-04T05:14:36.883Z,89.20
2022-08-04T05:15:56.138Z,89.00
2022-08-04T05:18:26.976Z,88.90
2022-08-04T05:21:05.287Z,88.80
2022-08-04T05:23:36.444Z,88.80
2022-08-04T05:26:11.427Z,88.80
2022-08-04T05:28:51.957Z,88.80
2022-08-04T05:31:38.046Z,88.80
2022-08-04T05:34:09.513Z,88.80
2022-08-04T05:36:43.276Z,88.90
2022-08-04T05:39:20.069Z,88.90
2022-08-04T05:41:55.136Z,89.10
2022-08-04T05:44:27.088Z,89.10
2022-08-04T05:46:57.468Z,89.10
2022-08-04T05:49:26.076Z,89.10
2022-08-04T05:51:55.974Z,88.90
2022-08-04T05:54:24.439Z,88.90
2022-08-04T05:56:53.247Z,88.70
2022-08-04T05:59:20.630Z,88.40
2022-08-04T06:01:54.927Z,88.20
2022-08-04T06:04:32.321Z,88.10
2022-08-04T06:06:59.431Z,87.90
2022-08-04T06:09:26.631Z,87.70
2022-08-04T06:12:03.970Z,87.40
2022-08-04T06:14:41.729Z,87.40
2022-08-04T06:18:33.262Z,87.20
2022-08-04T06:20:17.702Z,87.30
2022-08-04T06:22:50.574Z,87.10
2022-08-04T06:25:22.637Z,86.70
2022-08-04T06:27:50.652Z,86.60
2022-08-04T06:30:19.433Z,86.50
2022-08-04T06:32:48.840Z,86.40
2022-08-04T06:35:19.679Z,86.10
2022-08-04T06:37:47.775Z,86.00
2022-08-04T06:40:31.146Z,85.90
2022-08-04T06:43:02.304Z,86.00
2022-08-04T06:45:30.145Z,85.60
2022-08-04T06:47:58.378Z,85.40
2022-08-04T06:51:29.474Z,85.50
2022-08-04T06:53:13.426Z,85.00
2022-08-04T06:55:46.103Z,84.50
2022-08-04T06:58:14.145Z,84.40
2022-08-04T07:00:43.367Z,84.20
2022-08-04T07:03:11.520Z,84.00
2022-08-04T07:05:39.981Z,83.80
2022-08-04T07:08:09.715Z,83.20
2022-08-04T07:10:38.573Z,82.30
2022-08-04T07:13:07.333Z,82.20
2022-08-04T07:15:35.836Z,81.90
2022-08-04T07:18:04.778Z,80.10
2022-08-04T07:20:34.537Z,80.20
2022-08-04T07:23:02.130Z,79.90
2022-08-04T07:26:00.108Z,79.30
2022-08-04T07:28:16.307Z,79.50
2022-08-04T07:30:45.098Z,79.60
2022-08-04T07:33:12.232Z,79.50
2022-08-04T07:36:09.270Z,79.60
2022-08-04T07:38:27.815Z,78.60
2022-08-04T07:40:55.574Z,78.90
2022-08-04T07:43:23.374Z,78.80
2022-08-04T07:45:50.555Z,78.70
2022-08-04T07:48:18.958Z,78.50
2022-08-04T07:50:46.846Z,77.90
2022-08-04T07:53:54.909Z,76.60
2022-08-04T07:56:02.708Z,76.50
2022-08-04T07:58:30.329Z,75.70
2022-08-04T08:00:58.172Z,74.80
2022-08-04T08:03:26.653Z,73.60
2022-08-04T08:06:17.787Z,73.00
2022-08-04T08:08:40.716Z,72.60
2022-08-04T08:11:09.348Z,72.00
2022-08-04T08:13:37.500Z,71.80
2022-08-04T08:16:05.268Z,71.10
2022-08-04T08:18:32.343Z,70.10
2022-08-04T08:20:59.483Z,69.70
2022-08-04T08:23:27.142Z,70.50
2022-08-04T08:25:54.025Z,70.10
2022-08-04T08:28:21.008Z,69.20
2022-08-04T08:30:52.608Z,69.30
2022-08-04T08:33:21.240Z,69.50
2022-08-04T08:35:54.920Z,69.00
2022-08-04T08:38:37.892Z,68.40
2022-08-04T08:41:38.786Z,67.90
2022-08-04T08:44:37.380Z,68.10
2022-08-04T08:47:14.280Z,67.40
2022-08-04T08:50:04.102Z,66.80
2022-08-04T08:52:56.270Z,67.20
2022-08-04T08:55:50.274Z,66.70
2022-08-04T08:58:35.769Z,66.70
2022-08-04T09:01:15.783Z,66.10
2022-08-04T09:03:45.487Z,64.90
2022-08-04T09:06:46.088Z,65.60
2022-08-04T09:09:22.045Z,65.00
2022-08-04T09:11:52.360Z,64.60
2022-08-04T09:14:28.922Z,64.50
2022-08-04T09:17:03.092Z,64.50
2022-08-04T09:19:42.341Z,64.90
2022-08-04T09:22:19.857Z,63.90
2022-08-04T09:25:17.971Z,64.00
2022-08-04T09:27:51.982Z,63.60
2022-08-04T09:30:21.851Z,62.60
2022-08-04T09:33:18.189Z,62.40
2022-08-04T09:36:04.665Z,62.50
2022-08-04T09:39:07.015Z,62.60
2022-08-04T09:41:49.026Z,61.70
2022-08-04T09:44:51.225Z,62.20
2022-08-04T09:47:59.640Z,62.10
2022-08-04T09:50:35.786Z,61.60
2022-08-04T09:53:45.156Z,61.20
2022-08-04T09:56:25.290Z,61.70
2022-08-04T09:59:30.735Z,60.70
2022-08-04T10:02:03.359Z,60.50
2022-08-04T10:04:32.961Z,60.50
2022-08-04T10:07:29.009Z,60.30
2022-08-04T10:10:23.028Z,60.30
2022-08-04T10:12:55.843Z,59.10
2022-08-04T10:15:45.489Z,60.10
2022-08-04T10:18:32.684Z,60.40
2022-08-04T10:21:31.755Z,59.60
2022-08-04T10:24:31.682Z,59.50
2022-08-04T10:27:07.686Z,58.40
2022-08-04T10:29:41.192Z,59.20
2022-08-04T10:32:26.371Z,59.20
2022-08-04T10:35:13.163Z,58.90
2022-08-04T10:37:59.182Z,59.30
2022-08-04T10:40:43.123Z,58.40
2022-08-04T10:43:20.988Z,57.90
2022-08-04T10:45:57.764Z,58.70
2022-08-04T10:48:37.271Z,59.10
2022-08-04T10:51:21.553Z,58.70
2022-08-04T10:53:55.333Z,59.00
2022-08-04T10:56:31.864Z,58.50
2022-08-04T10:59:03.619Z,57.00
2022-08-04T11:02:00.757Z,57.20
2022-08-04T11:04:38.891Z,57.60
2022-08-04T11:07:06.409Z,55.70
2022-08-04T11:09:34.353Z,55.20
2022-08-04T11:12:12.239Z,55.50
2022-08-04T11:14:55.005Z,55.20
2022-08-04T11:17:45.125Z,54.90
2022-08-04T11:23:09.193Z,53.90
2022-08-04T11:25:40.224Z,53.30
2022-08-04T11:28:34.760Z,53.60
2022-08-04T11:31:21.244Z,54.80
2022-08-04T11:33:59.073Z,55.50
2022-08-04T11:36:36.502Z,55.60
2022-08-04T11:39:20.722Z,54.00
2022-08-04T11:41:53.467Z,53.90
2022-08-04T11:44:37.610Z,53.90
2022-08-04T11:47:11.325Z,54.70
2022-08-04T11:49:56.895Z,54.50
2022-08-04T11:52:28.541Z,53.70
2022-08-04T11:54:57.125Z,53.80
2022-08-04T11:57:35.379Z,53.80
2022-08-04T12:00:12.774Z,54.40
2022-08-04T12:02:39.965Z,52.80
2022-08-04T12:05:09.325Z,51.90
2022-08-04T12:08:08.566Z,53.00
2022-08-04T12:11:02.428Z,53.00
2022-08-04T12:13:32.361Z,52.60
2022-08-04T12:16:20.585Z,52.70
2022-08-04T12:18:53.342Z,52.10
2022-08-04T12:21:33.818Z,52.00
2022-08-04T12:24:20.168Z,52.30
2022-08-04T12:26:56.967Z,53.40
2022-08-04T12:29:27.551Z,52.90
2022-08-04T12:32:00.627Z,52.80
2022-08-04T12:34:34.653Z,52.10
2022-08-04T12:37:23.767Z,51.80
2022-08-04T12:40:28.718Z,51.50
2022-08-04T12:42:59.831Z,51.80
2022-08-04T12:45:27.477Z,52.20
2022-08-04T12:47:58.459Z,52.50
2022-08-04T12:50:26.165Z,52.00
2022-08-04T12:53:04.341Z,52.60
2022-08-04T12:55:35.195Z,52.50
2022-08-04T12:58:11.662Z,52.50
2022-08-04T13:00:41.805Z,52.00
2022-08-04T13:03:15.600Z,51.70
2022-08-04T13:05:43.951Z,52.80
2022-08-04T13:08:12.604Z,52.10
2022-08-04T13:10:48.100Z,52.60
2022-08-04T13:13:21.258Z,52.80
2022-08-04T13:16:03.789Z,51.90
2022-08-04T13:18:33.539Z,52.10
2022-08-04T13:21:19.645Z,52.30
2022-08-04T13:24:19.121Z,52.40
2022-08-04T13:26:55.998Z,53.00
2022-08-04T13:29:59.524Z,52.90
2022-08-04T13:32:20.489Z,52.20
2022-08-04T13:34:52.373Z,50.50
2022-08-04T13:37:23.637Z,49.50
2022-08-04T13:39:55.274Z,49.90
2022-08-04T13:42:24.097Z,49.60
2022-08-04T13:44:57.903Z,50.30
2022-08-04T13:47:31.481Z,51.00
2022-08-04T13:50:27.666Z,50.50
2022-08-04T13:52:57.679Z,51.50
2022-08-04T13:55:35.766Z,51.40
2022-08-04T13:58:08.956Z,51.60
2022-08-04T14:00:47.568Z,51.40
2022-08-04T14:03:24.423Z,51.50
2022-08-04T14:06:18.787Z,51.70
2022-08-04T14:08:51.117Z,51.30
2022-08-04T14:12:06.595Z,51.50
2022-08-04T14:14:25.440Z,51.20
2022-08-04T14:17:07.825Z,51.80
2022-08-04T14:19:47.813Z,51.50
2022-08-04T14:22:27.025Z,52.40
2022-08-04T14:25:06.561Z,52.20
2022-08-04T14:27:51.192Z,51.60
2022-08-04T14:30:36.685Z,52.00
2022-08-04T14:34:01.918Z,52.00
2022-08-04T14:36:03.961Z,52.30
2022-08-04T14:38:53.800Z,52.30
2022-08-04T14:41:31.532Z,52.40
2022-08-04T14:44:01.457Z,52.30
2022-08-04T14:46:37.032Z,52.60
2022-08-04T14:49:13.512Z,52.60
2022-08-04T14:52:06.733Z,52.60
2022-08-04T14:54:35.491Z,52.80
2022-08-04T14:57:05.328Z,52.60
2022-08-04T14:59:41.830Z,51.70
2022-08-04T15:02:29.941Z,52.00
2022-08-04T15:04:59.206Z,52.30
2022-08-04T15:07:46.153Z,52.00
2022-08-04T15:10:13.474Z,52.80
2022-08-04T15:12:40.708Z,52.30
2022-08-04T15:15:34.066Z,52.30
2022-08-04T15:17:55.456Z,51.80
2022-08-04T15:20:23.310Z,51.70
2022-08-04T15:22:50.200Z,52.10
2022-08-04T15:25:17.720Z,52.30
2022-08-04T15:27:48.890Z,51.90
2022-08-04T15:30:18.176Z,52.00
2022-08-04T15:32:52.001Z,51.70
2022-08-04T15:35:30.829Z,51.80
2022-08-04T15:38:05.470Z,51.40
2022-08-04T15:40:38.591Z,51.60
2022-08-04T15:43:26.928Z,51.20
2022-08-04T15:46:30.774Z,51.40
2022-08-04T15:48:42.714Z,51.10
2022-08-04T15:51:14.401Z,51.10
2022-08-04T15:54:02.631Z,51.50
2022-08-04T15:56:29.793Z,51.70
2022-08-04T15:58:57.197Z,52.30
2022-08-04T16:01:25.110Z,53.80
2022-08-04T16:04:00.883Z,55.00
2022-08-04T16:06:29.515Z,56.00
2022-08-04T16:09:01.245Z,58.20
2022-08-04T16:11:32.898Z,60.00
2022-08-04T16:13:59.990Z,60.50
2022-08-04T16:16:51.183Z,60.90
2022-08-04T16:19:20.749Z,61.30
2022-08-04T16:21:55.343Z,61.80
2022-08-04T16:24:29.699Z,62.20
2022-08-04T16:26:58.199Z,62.60
2022-08-04T16:29:38.332Z,62.90
2022-08-04T16:32:05.257Z,63.10
2022-08-04T16:34:48.594Z,63.30
2022-08-04T16:37:18.925Z,63.50
2022-08-04T16:39:50.049Z,63.70
2022-08-04T16:42:32.898Z,63.60
2022-08-04T16:45:13.345Z,63.70
2022-08-04T16:47:49.026Z,63.60
2022-08-04T16:50:23.102Z,63.20
2022-08-04T16:52:51.826Z,63.30
2022-08-04T16:55:20.549Z,63.40
2022-08-04T16:57:52.348Z,63.60
2022-08-04T17:00:32.595Z,63.80
2022-08-04T17:03:05.697Z,63.70
2022-08-04T17:05:38.820Z,63.80
2022-08-04T17:08:29.048Z,64.00
2022-08-04T17:10:55.128Z,63.90
2022-08-04T17:14:00.952Z,63.80
2022-08-04T17:16:25.329Z,63.70
2022-08-04T17:18:53.897Z,63.60
2022-08-04T17:21:30.275Z,63.70
2022-08-04T17:24:16.206Z,63.70
2022-08-04T17:26:54.102Z,63.70
2022-08-04T17:29:43.379Z,63.80
2022-08-04T17:32:20.921Z,63.70
2022-08-04T17:34:54.334Z,63.50
2022-08-04T17:37:51.916Z,63.40
2022-08-04T17:40:22.885Z,63.50
2022-08-04T17:46:29.288Z,63.50
2022-08-04T17:49:21.954Z,63.70
2022-08-04T17:52:05.705Z,63.80
2022-08-04T17:57:25.839Z,64.00
2022-08-04T17:59:57.830Z,64.20
2022-08-04T18:02:33.540Z,64.30
2022-08-04T18:05:06.956Z,64.50
2022-08-04T18:08:35.009Z,64.60
2022-08-04T18:10:52.674Z,64.70
2022-08-04T18:13:27.781Z,64.90
2022-08-04T18:16:04.904Z,65.00
2022-08-04T18:18:32.081Z,64.90
2022-08-04T18:21:03.188Z,65.00
2022-08-04T18:23:32.805Z,65.10
2022-08-04T18:26:02.058Z,65.30
2022-08-04T18:28:30.711Z,65.20
2022-08-04T18:31:00.220Z,65.30
2022-08-04T18:33:40.574Z,65.50
2022-08-04T18:36:33.426Z,65.70
2022-08-04T18:39:15.079Z,65.80
2022-08-04T18:42:00.960Z,66.00
2022-08-04T18:44:53.234Z,66.30
2022-08-04T18:47:23.123Z,66.50
2022-08-04T18:50:40.262Z,66.90
2022-08-04T18:52:55.702Z,67.10
2022-08-04T18:55:55.648Z,67.50
2022-08-04T18:58:12.846Z,67.70
2022-08-04T19:00:45.660Z,68.00
2022-08-04T19:06:04.159Z,68.60
2022-08-04T19:08:42.016Z,69.00
2022-08-04T19:11:29.286Z,69.50
2022-08-04T19:13:58.473Z,69.90
2022-08-04T19:16:30.800Z,70.40
2022-08-04T19:19:00.271Z,71.10
2022-08-04T19:22:01.264Z,71.40
2022-08-04T19:24:32.434Z,71.90
2022-08-04T19:29:52.974Z,73.30
2022-08-04T19:32:20.963Z,73.90
2022-08-04T19:34:48.562Z,74.40
2022-08-04T19:37:56.915Z,74.90
2022-08-04T19:40:09.635Z,75.50
2022-08-04T19:42:37.435Z,76.00
2022-08-04T19:45:05.078Z,76.50
2022-08-04T19:48:18.297Z,77.00
2022-08-04T19:50:20.111Z,77.40
2022-08-04T19:55:38.385Z,78.20
2022-08-04T19:58:08.538Z,79.00
2022-08-04T20:00:37.501Z,79.40
2022-08-04T20:03:11.615Z,79.90
2022-08-04T20:05:54.352Z,80.70
2022-08-04T20:08:32.018Z,81.00
2022-08-04T20:11:00.059Z,81.60
2022-08-04T20:13:33.840Z,82.10
2022-08-04T20:16:29.759Z,82.20
2022-08-04T20:19:00.990Z,82.40
2022-08-04T20:24:38.753Z,82.80
2022-08-04T20:27:25.334Z,82.90
2022-08-04T20:29:56.519Z,83.10
2022-08-04T20:32:25.468Z,83.20
2022-08-04T20:34:54.374Z,83.50
2022-08-04T20:37:25.631Z,83.50
2022-08-04T20:40:12.393Z,83.80
2022-08-04T20:42:40.472Z,84.10
2022-08-04T20:45:16.321Z,84.40
2022-08-04T20:47:45.980Z,84.90
2022-08-04T20:50:28.356Z,85.30
2022-08-04T20:52:58.050Z,85.60
2022-08-04T20:55:25.535Z,85.80
2022-08-04T21:00:43.661Z,86.10
2022-08-04T21:03:10.567Z,86.30
2022-08-04T21:05:37.887Z,86.50
2022-08-04T21:08:04.959Z,86.60
2022-08-04T21:10:31.973Z,86.90
2022-08-04T21:12:58.840Z,87.10
2022-08-04T21:15:58.057Z,87.60
2022-08-04T21:18:14.453Z,87.80
2022-08-04T21:20:43.798Z,88.00
2022-08-04T21:23:10.691Z,88.10
2022-08-04T21:25:43.681Z,88.10
2022-08-04T21:28:11.136Z,88.20
2022-08-04T21:30:52.797Z,88.40
2022-08-04T21:33:22.966Z,88.70
2022-08-04T21:35:54.273Z,88.90
2022-08-04T21:38:28.280Z,89.30
2022-08-04T21:40:57.763Z,89.60
2022-08-04T21:43:27.354Z,90.00
2022-08-04T21:45:55.952Z,90.00
2022-08-04T21:48:23.835Z,90.20
2022-08-04T21:50:54.311Z,90.30
2022-08-04T21:53:22.113Z,90.40
2022-08-04T21:56:05.429Z,90.40
2022-08-04T21:58:35.127Z,90.50
2022-08-04T22:01:05.838Z,90.50
2022-08-04T22:03:52.851Z,90.60
2022-08-04T22:06:28.404Z,90.60
2022-08-04T22:08:56.413Z,90.70
2022-08-04T22:11:43.788Z,90.90
2022-08-04T22:14:16.586Z,91.00
2022-08-04T22:16:45.194Z,91.00
2022-08-04T22:19:13.657Z,91.10
2022-08-04T22:21:45.206Z,91.00
2022-08-04T22:24:13.903Z,91.10
2022-08-04T22:26:41.381Z,91.10
2022-08-04T22:29:14.463Z,91.20
2022-08-04T22:31:53.181Z,91.20
2022-08-04T22:34:25.002Z,91.20
2022-08-04T22:36:53.542Z,91.30
2022-08-04T22:39:23.517Z,91.30
2022-08-04T22:42:03.915Z,91.40
2022-08-04T22:44:33.566Z,91.30
2022-08-04T22:47:01.324Z,91.30
2022-08-04T22:49:31.702Z,91.40
2022-08-04T22:51:59.106Z,91.40
2022-08-04T22:54:29.652Z,91.50
2022-08-04T22:56:58.546Z,91.60
2022-08-04T22:59:26.813Z,91.60
2022-08-04T23:01:59.061Z,91.60
2022-08-04T23:04:27.044Z,91.60
2022-08-04T23:06:54.787Z,91.70
2022-08-04T23:09:22.286Z,91.70
2022-08-04T23:12:24.522Z,91.70
2022-08-04T23:14:52.541Z,91.70
2022-08-04T23:17:19.338Z,91.70
2022-08-04T23:19:57.962Z,91.70
2022-08-04T23:22:41.413Z,91.80
2022-08-04T23:25:15.463Z,91.90
2022-08-04T23:27:50.952Z,91.90
2022-08-04T23:30:24.761Z,92.00
2022-08-04T23:32:56.401Z,92.10
2022-08-04T23:35:23.988Z,92.20
2022-08-04T23:37:56.984Z,92.30
2022-08-04T23:40:32.772Z,92.30
2022-08-04T23:43:12.328Z,92.40
2022-08-04T23:46:03.949Z,92.40
2022-08-04T23:48:39.399Z,92.60
2022-08-04T23:51:14.260Z,92.70
2022-08-04T23:54:03.429Z,92.80
2022-08-04T23:56:35.550Z,92.90
2022-08-04T23:59:04.922Z,92.90
